createdAt,value
2018-10-19T00:02:00.187Z,62.67
2018-10-19T00:04:27.807Z,67.33
2018-10-19T00:06:55.479Z,67.67
2018-10-19T00:09:23.224Z,58.42
2018-10-19T00:11:50.931Z,60.10
2018-10-19T00:14:18.655Z,58.57
2018-10-19T00:16:46.336Z,54.45
2018-10-19T00:19:14.531Z,52.30
2018-10-19T00:21:42.287Z,61.92
2018-10-19T00:24:09.941Z,54.18
2018-10-19T00:26:37.588Z,54.60
2018-10-19T00:29:05.510Z,50.13
2018-10-19T00:31:33.260Z,53.10
2018-10-19T00:34:00.951Z,55.03
2018-10-19T00:36:28.669Z,55.47
2018-10-19T00:38:56.415Z,57.88
2018-10-19T00:41:24.024Z,56.05
2018-10-19T00:43:51.812Z,56.20
2018-10-19T00:46:19.518Z,63.80
2018-10-19T00:48:47.189Z,53.73
2018-10-19T00:51:14.866Z,56.27
2018-10-19T00:53:42.482Z,48.08
2018-10-19T00:56:10.265Z,59.53
2018-10-19T00:58:37.972Z,57.17
2018-10-19T01:01:05.633Z,53.45
2018-10-19T01:03:33.278Z,48.55
2018-10-19T01:06:00.876Z,50.67
2018-10-19T01:08:28.515Z,53.03
2018-10-19T01:10:56.174Z,56.28
2018-10-19T01:13:23.795Z,53.85
2018-10-19T01:15:51.609Z,51.73
2018-10-19T01:18:19.298Z,43.77
2018-10-19T01:20:46.957Z,51.07
2018-10-19T01:23:15.034Z,56.63
2018-10-19T01:25:42.649Z,44.13
2018-10-19T01:28:11.105Z,48.37
2018-10-19T01:30:38.844Z,48.20
2018-10-19T01:33:06.550Z,46.80
2018-10-19T01:35:34.163Z,49.07
2018-10-19T01:38:01.734Z,45.10
2018-10-19T01:40:29.375Z,41.23
2018-10-19T01:42:57.005Z,41.85
2018-10-19T01:45:24.807Z,35.17
2018-10-19T01:47:52.439Z,39.97
2018-10-19T01:50:20.108Z,35.17
2018-10-19T01:52:47.827Z,32.60
2018-10-19T01:55:15.458Z,33.83
2018-10-19T01:57:43.056Z,26.95
2018-10-19T02:00:10.782Z,30.97
2018-10-19T02:02:38.479Z,31.17
2018-10-19T02:05:06.190Z,26.10
2018-10-19T02:07:33.785Z,25.95
2018-10-19T02:10:01.488Z,25.17
2018-10-19T02:12:29.145Z,22.67
2018-10-19T02:14:57.018Z,19.60
2018-10-19T02:17:24.627Z,19.70
2018-10-19T02:19:52.288Z,26.47
2018-10-19T02:22:19.979Z,24.33
2018-10-19T02:24:47.622Z,23.17
2018-10-19T02:27:15.321Z,16.50
2018-10-19T02:29:42.929Z,21.80
2018-10-19T02:32:10.631Z,24.67
2018-10-19T02:34:38.293Z,22.63
2018-10-19T02:37:06.402Z,23.63
2018-10-19T02:39:34.101Z,24.47
2018-10-19T02:42:01.861Z,26.13
2018-10-19T02:44:29.664Z,31.93
2018-10-19T02:46:57.448Z,28.20
2018-10-19T02:49:25.149Z,31.90
2018-10-19T02:51:52.899Z,32.73
2018-10-19T02:54:20.582Z,35.55
2018-10-19T02:56:48.239Z,34.98
2018-10-19T02:59:15.894Z,39.70
2018-10-19T03:01:43.521Z,47.13
2018-10-19T03:04:11.199Z,45.00
2018-10-19T03:06:38.848Z,44.63
2018-10-19T03:09:09.425Z,43.07
2018-10-19T03:11:37.103Z,43.83
2018-10-19T03:14:04.881Z,48.10
2018-10-19T03:16:47.005Z,49.53
2018-10-19T03:19:14.715Z,47.70
2018-10-19T03:21:42.745Z,43.52
2018-10-19T03:24:10.413Z,50.23
2018-10-19T03:26:38.121Z,44.10
2018-10-19T03:29:05.829Z,43.25
2018-10-19T03:31:33.825Z,61.13
2018-10-19T03:34:01.514Z,49.25
2018-10-19T03:36:29.137Z,63.10
2018-10-19T03:38:56.920Z,50.87
2018-10-19T03:41:25.630Z,72.00
2018-10-19T03:43:53.308Z,59.48
2018-10-19T03:46:20.956Z,78.25
2018-10-19T03:48:48.567Z,65.87
2018-10-19T03:51:16.274Z,68.47
2018-10-19T03:53:43.954Z,83.40
2018-10-19T03:56:11.593Z,101.82
2018-10-19T03:58:39.280Z,113.57
2018-10-19T04:01:07.048Z,126.73
2018-10-19T04:03:34.866Z,121.57
2018-10-19T04:06:02.570Z,130.53
2018-10-19T04:08:30.376Z,138.17
2018-10-19T04:10:58.101Z,181.75
2018-10-19T04:13:25.799Z,139.17
2018-10-19T04:15:53.432Z,167.77
2018-10-19T04:18:21.193Z,173.40
2018-10-19T04:20:49.138Z,159.87
2018-10-19T04:23:16.855Z,178.70
2018-10-19T04:25:44.552Z,161.80
2018-10-19T04:28:12.288Z,170.60
2018-10-19T04:30:39.962Z,178.27
2018-10-19T04:33:07.771Z,170.40
2018-10-19T04:35:35.407Z,147.22
2018-10-19T04:38:03.329Z,117.10
2018-10-19T04:40:31.124Z,133.15
2018-10-19T04:42:58.815Z,142.13
2018-10-19T04:45:26.689Z,116.07
2018-10-19T04:47:54.290Z,118.73
2018-10-19T04:50:21.972Z,102.03
2018-10-19T04:52:49.959Z,113.05
2018-10-19T04:55:19.875Z,120.20
2018-10-19T04:57:47.775Z,112.93
2018-10-19T05:00:17.268Z,107.90
2018-10-19T05:02:45.092Z,106.40
2018-10-19T05:05:12.991Z,93.17
2018-10-19T05:07:40.673Z,100.73
2018-10-19T05:10:09.075Z,108.10
2018-10-19T05:12:36.949Z,86.67
2018-10-19T05:15:06.220Z,98.60
2018-10-19T05:17:34.010Z,101.57
2018-10-19T05:20:01.725Z,106.17
2018-10-19T05:22:29.396Z,117.33
2018-10-19T05:24:57.008Z,106.22
2018-10-19T05:27:24.705Z,116.00
2018-10-19T05:29:52.362Z,130.07
2018-10-19T05:32:20.064Z,120.13
2018-10-19T05:34:47.693Z,105.80
2018-10-19T05:37:15.355Z,104.60
2018-10-19T05:39:43.079Z,107.40
2018-10-19T05:42:10.722Z,119.90
2018-10-19T05:44:38.445Z,128.70
2018-10-19T05:47:06.388Z,106.67
2018-10-19T05:49:33.986Z,105.80
2018-10-19T05:52:01.702Z,90.62
2018-10-19T05:54:29.299Z,101.53
2018-10-19T05:56:56.983Z,96.67
2018-10-19T05:59:24.646Z,92.83
2018-10-19T06:01:52.251Z,105.30
2018-10-19T06:04:19.944Z,91.28
2018-10-19T06:06:47.820Z,118.60
2018-10-19T06:09:15.745Z,111.47
2018-10-19T06:11:43.584Z,103.47
2018-10-19T06:14:11.276Z,126.77
2018-10-19T06:16:39.445Z,122.93
2018-10-19T06:19:08.273Z,114.80
2018-10-19T06:21:35.906Z,112.30
2018-10-19T06:24:04.362Z,104.20
2018-10-19T06:26:32.088Z,117.22
2018-10-19T06:28:59.674Z,104.97
2018-10-19T06:31:27.292Z,107.07
2018-10-19T06:33:54.914Z,112.63
2018-10-19T06:36:22.549Z,118.28
2018-10-19T06:38:50.198Z,124.00
2018-10-19T06:41:17.915Z,136.70
2018-10-19T06:43:45.429Z,118.60
2018-10-19T06:46:13.133Z,112.08
2018-10-19T06:48:40.725Z,130.97
2018-10-19T06:51:08.375Z,133.10
2018-10-19T06:53:36.164Z,135.97
2018-10-19T06:56:03.783Z,139.50
2018-10-19T06:58:31.454Z,135.60
2018-10-19T07:00:59.174Z,163.80
2018-10-19T07:03:26.833Z,162.45
2018-10-19T07:05:54.610Z,177.20
2018-10-19T07:08:22.286Z,175.90
2018-10-19T07:10:49.977Z,153.70
2018-10-19T07:13:17.655Z,194.37
2018-10-19T07:15:45.379Z,151.12
2018-10-19T07:18:12.984Z,147.00
2018-10-19T07:20:40.650Z,125.05
2018-10-19T07:23:08.351Z,97.72
2018-10-19T07:25:36.062Z,98.90
2018-10-19T07:28:04.155Z,92.50
2018-10-19T07:30:39.145Z,103.23
2018-10-19T07:33:06.841Z,102.87
2018-10-19T07:35:41.535Z,97.67
2018-10-19T07:38:09.176Z,95.90
2018-10-19T07:40:37.185Z,110.25
2018-10-19T07:43:05.183Z,117.60
2018-10-19T07:45:32.948Z,108.07
2018-10-19T07:48:00.861Z,112.10
2018-10-19T07:50:28.458Z,132.45
2018-10-19T07:52:56.194Z,98.00
2018-10-19T07:55:23.850Z,111.07
2018-10-19T07:57:51.787Z,103.90
2018-10-19T08:00:19.640Z,111.80
2018-10-19T08:02:47.275Z,102.97
2018-10-19T08:05:15.063Z,101.77
2018-10-19T08:07:42.680Z,95.07
2018-10-19T08:10:10.831Z,86.08
2018-10-19T08:12:38.606Z,93.90
2018-10-19T08:15:07.320Z,99.90
2018-10-19T08:17:35.066Z,96.12
2018-10-19T08:20:02.927Z,100.75
2018-10-19T08:22:30.676Z,96.73
2018-10-19T08:24:58.344Z,100.40
2018-10-19T08:27:26.118Z,85.23
2018-10-19T08:29:53.753Z,88.80
2018-10-19T08:32:21.559Z,68.07
2018-10-19T08:34:49.319Z,73.65
2018-10-19T08:37:16.941Z,61.55
2018-10-19T08:39:44.997Z,74.13
2018-10-19T08:42:12.879Z,70.40
2018-10-19T08:44:40.583Z,65.97
2018-10-19T08:47:08.455Z,76.07
2018-10-19T08:49:37.053Z,63.47
2018-10-19T08:52:04.743Z,63.27
2018-10-19T08:54:32.568Z,57.67
2018-10-19T08:57:00.292Z,58.60
2018-10-19T08:59:28.235Z,58.05
2018-10-19T09:01:55.969Z,61.42
2018-10-19T09:04:23.803Z,57.83
2018-10-19T09:06:51.526Z,46.25
2018-10-19T09:09:19.179Z,53.10
2018-10-19T09:11:47.045Z,63.07
2018-10-19T09:14:32.213Z,45.67
2018-10-19T09:16:59.995Z,45.93
2018-10-19T09:19:27.628Z,45.80
2018-10-19T09:21:55.208Z,65.03
2018-10-19T09:24:23.181Z,54.80
2018-10-19T09:26:50.804Z,48.00
2018-10-19T09:29:18.449Z,48.93
2018-10-19T09:31:46.149Z,44.17
2018-10-19T09:34:13.722Z,50.95
2018-10-19T09:36:41.535Z,44.65
2018-10-19T09:39:11.615Z,59.83
2018-10-19T09:41:39.505Z,54.63
2018-10-19T09:44:07.242Z,45.57
2018-10-19T09:46:38.246Z,56.67
2018-10-19T09:49:06.522Z,53.87
2018-10-19T09:51:34.766Z,64.33
2018-10-19T09:54:02.484Z,58.70
2018-10-19T09:56:30.221Z,50.80
2018-10-19T09:58:57.991Z,46.00
2018-10-19T10:01:28.723Z,54.40
2018-10-19T10:03:56.438Z,46.00
2018-10-19T10:06:24.214Z,46.67
2018-10-19T10:08:52.089Z,58.50
2018-10-19T10:11:20.037Z,52.35
2018-10-19T10:13:47.972Z,39.75
2018-10-19T10:16:15.663Z,52.13
2018-10-19T10:18:43.404Z,52.03
2018-10-19T10:21:11.400Z,44.85
2018-10-19T10:23:39.494Z,59.10
2018-10-19T10:26:07.310Z,50.20
2018-10-19T10:28:34.990Z,47.93
2018-10-19T10:31:02.820Z,49.15
2018-10-19T10:33:30.506Z,55.73
2018-10-19T10:35:58.169Z,48.60
2018-10-19T10:38:25.930Z,43.37
2018-10-19T10:40:53.621Z,41.47
2018-10-19T10:43:21.593Z,34.70
2018-10-19T10:45:49.335Z,42.43
2018-10-19T10:48:17.113Z,38.17
2018-10-19T10:50:44.819Z,34.83
2018-10-19T10:53:12.713Z,47.65
2018-10-19T10:55:40.409Z,41.85
2018-10-19T10:58:08.176Z,33.03
2018-10-19T11:00:35.983Z,34.30
2018-10-19T11:03:04.121Z,39.23
2018-10-19T11:05:32.195Z,40.37
2018-10-19T11:07:59.873Z,31.68
2018-10-19T11:10:27.499Z,47.00
2018-10-19T11:12:55.155Z,36.33
2018-10-19T11:15:22.821Z,42.60
2018-10-19T11:17:50.672Z,34.48
2018-10-19T11:20:18.398Z,33.93
2018-10-19T11:22:46.041Z,37.40
2018-10-19T11:25:13.778Z,33.23
2018-10-19T11:27:41.392Z,38.33
2018-10-19T11:30:09.136Z,39.73
2018-10-19T11:32:36.878Z,37.17
2018-10-19T11:35:05.369Z,37.80
2018-10-19T11:37:33.257Z,38.42
2018-10-19T11:40:38.583Z,43.73
2018-10-19T11:43:06.679Z,42.30
2018-10-19T11:45:35.228Z,44.40
2018-10-19T11:48:02.904Z,47.43
2018-10-19T11:50:30.768Z,42.13
2018-10-19T11:52:58.446Z,42.17
2018-10-19T11:55:26.244Z,47.40
2018-10-19T11:57:54.003Z,49.63
2018-10-19T12:00:21.651Z,45.73
2018-10-19T12:02:49.281Z,45.50
2018-10-19T12:05:17.119Z,44.17
2018-10-19T12:07:44.811Z,43.97
2018-10-19T12:10:13.257Z,55.00
2018-10-19T12:12:41.496Z,47.60
2018-10-19T12:15:10.588Z,49.67
2018-10-19T12:17:38.833Z,59.80
2018-10-19T12:20:09.330Z,45.47
2018-10-19T12:22:37.014Z,42.30
2018-10-19T12:25:06.631Z,45.57
2018-10-19T12:27:34.290Z,46.50
2018-10-19T12:30:01.960Z,47.13
2018-10-19T12:32:29.658Z,46.20
2018-10-19T12:34:57.303Z,46.87
2018-10-19T12:37:25.066Z,47.53
2018-10-19T12:39:52.704Z,50.53
2018-10-19T12:42:20.351Z,57.30
2018-10-19T12:44:48.029Z,49.33
2018-10-19T12:47:31.194Z,50.97
2018-10-19T12:49:58.957Z,55.83
2018-10-19T12:52:26.756Z,48.87
2018-10-19T12:54:54.635Z,58.30
2018-10-19T12:57:22.457Z,38.43
2018-10-19T12:59:50.112Z,63.90
2018-10-19T13:02:17.851Z,61.23
2018-10-19T13:04:45.573Z,55.13
2018-10-19T13:07:13.249Z,56.27
2018-10-19T13:09:41.001Z,60.73
2018-10-19T13:12:08.667Z,49.10
2018-10-19T13:14:36.313Z,56.58
2018-10-19T13:17:04.431Z,51.60
2018-10-19T13:19:32.126Z,51.48
2018-10-19T13:21:59.755Z,53.83
2018-10-19T13:24:27.551Z,56.53
2018-10-19T13:26:55.307Z,59.53
2018-10-19T13:29:23.283Z,54.97
2018-10-19T13:31:50.973Z,55.60
2018-10-19T13:34:18.615Z,56.60
2018-10-19T13:36:46.204Z,63.92
2018-10-19T13:39:14.166Z,67.03
2018-10-19T13:41:42.458Z,68.37
2018-10-19T13:44:10.607Z,51.40
2018-10-19T13:46:38.294Z,51.23
2018-10-19T13:49:06.126Z,49.30
2018-10-19T13:51:34.193Z,64.53
2018-10-19T13:54:02.159Z,58.87
2018-10-19T13:56:30.135Z,51.13
2018-10-19T13:58:57.899Z,62.10
2018-10-19T14:01:25.691Z,61.93
2018-10-19T14:03:53.340Z,61.77
2018-10-19T14:06:21.090Z,61.85
2018-10-19T14:08:48.814Z,61.13
2018-10-19T14:11:16.618Z,63.13
2018-10-19T14:13:44.257Z,59.17
2018-10-19T14:16:11.969Z,57.40
2018-10-19T14:18:39.632Z,57.97
2018-10-19T14:21:07.408Z,64.80
2018-10-19T14:23:35.170Z,53.92
2018-10-19T14:26:02.790Z,62.40
2018-10-19T14:28:30.522Z,58.23
2018-10-19T14:30:58.173Z,52.20
2018-10-19T14:33:26.053Z,58.63
2018-10-19T14:35:53.846Z,67.73
2018-10-19T14:38:21.472Z,52.23
2018-10-19T14:40:49.148Z,64.65
2018-10-19T14:43:18.142Z,58.50
2018-10-19T14:45:46.244Z,54.27
2018-10-19T14:48:13.994Z,57.33
2018-10-19T14:50:41.741Z,64.33
2018-10-19T14:53:09.504Z,48.10
2018-10-19T14:55:37.252Z,53.50
2018-10-19T14:58:05.103Z,55.08
2018-10-19T15:00:32.826Z,63.97
2018-10-19T15:05:27.073Z,60.47
2018-10-19T15:07:54.751Z,52.33
2018-10-19T15:10:22.619Z,61.98
2018-10-19T15:12:50.082Z,63.68
2018-10-19T15:15:19.005Z,57.60
2018-10-19T15:17:46.968Z,72.60
2018-10-19T15:20:15.101Z,65.13
2018-10-19T15:22:43.248Z,75.73
2018-10-19T15:25:11.291Z,54.63
2018-10-19T15:27:40.005Z,46.80
2018-10-19T15:30:09.328Z,58.23
2018-10-19T15:32:37.051Z,64.13
2018-10-19T15:35:06.663Z,55.47
2018-10-19T15:37:35.416Z,64.03
2018-10-19T15:40:03.241Z,57.37
2018-10-19T15:42:30.867Z,61.90
2018-10-19T15:44:58.530Z,57.45
2018-10-19T15:47:28.103Z,60.90
2018-10-19T15:49:57.085Z,58.50
2018-10-19T15:52:24.867Z,45.33
2018-10-19T15:54:52.980Z,68.67
2018-10-19T15:57:20.778Z,53.83
2018-10-19T15:59:48.406Z,60.17
2018-10-19T16:02:16.655Z,67.32
2018-10-19T16:04:44.839Z,59.70
2018-10-19T16:07:12.791Z,57.43
2018-10-19T16:09:40.552Z,67.27
2018-10-19T16:12:08.467Z,69.13
2018-10-19T16:14:36.175Z,64.30
2018-10-19T16:17:03.965Z,58.08
2018-10-19T16:19:32.580Z,55.90
2018-10-19T16:22:00.275Z,46.93
2018-10-19T16:24:28.004Z,41.03
2018-10-19T16:26:55.760Z,51.45
2018-10-19T16:29:23.439Z,49.23
2018-10-19T16:31:51.129Z,48.40
2018-10-19T16:34:18.898Z,40.70
2018-10-19T16:36:46.837Z,53.90
2018-10-19T16:39:14.646Z,46.30
2018-10-19T16:41:42.379Z,45.97
2018-10-19T16:44:10.143Z,50.63
2018-10-19T16:46:37.951Z,43.58
2018-10-19T16:49:05.698Z,49.48
2018-10-19T16:51:33.550Z,45.40
2018-10-19T16:54:01.327Z,53.50
2018-10-19T16:56:29.078Z,51.98
2018-10-19T16:58:56.816Z,41.47
2018-10-19T17:01:24.900Z,46.37
2018-10-19T17:03:52.700Z,42.70
2018-10-19T17:06:20.466Z,44.17
2018-10-19T17:08:48.419Z,47.67
2018-10-19T17:11:16.391Z,50.50
2018-10-19T17:13:47.224Z,46.93
2018-10-19T17:16:15.182Z,45.63
2018-10-19T17:18:42.893Z,54.83
2018-10-19T17:21:10.802Z,42.73
2018-10-19T17:23:38.572Z,38.05
2018-10-19T17:26:07.003Z,33.75
2018-10-19T17:28:34.825Z,43.27
2018-10-19T17:31:02.730Z,38.40
2018-10-19T17:33:30.722Z,46.50
2018-10-19T17:35:58.636Z,42.50
2018-10-19T17:38:26.751Z,46.63
2018-10-19T17:40:54.650Z,42.47
2018-10-19T17:43:22.556Z,45.30
2018-10-19T17:45:50.369Z,41.23
2018-10-19T17:48:18.175Z,40.37
2018-10-19T17:50:45.944Z,42.30
2018-10-19T17:53:13.853Z,36.75
2018-10-19T17:55:41.483Z,41.92
2018-10-19T17:58:09.213Z,47.67
2018-10-19T18:00:36.986Z,38.93
2018-10-19T18:03:04.871Z,41.60
2018-10-19T18:05:32.577Z,44.83
2018-10-19T18:08:00.319Z,45.80
2018-10-19T18:10:28.238Z,46.27
2018-10-19T18:12:55.997Z,44.47
2018-10-19T18:15:23.836Z,41.50
2018-10-19T18:17:51.663Z,47.77
2018-10-19T18:20:19.441Z,55.10
2018-10-19T18:22:47.164Z,41.23
2018-10-19T18:25:14.970Z,44.70
2018-10-19T18:27:42.652Z,46.53
2018-10-19T18:30:10.504Z,36.53
2018-10-19T18:32:38.480Z,34.60
2018-10-19T18:35:08.138Z,43.87
2018-10-19T18:37:35.906Z,41.43
2018-10-19T18:40:05.046Z,48.00
2018-10-19T18:42:32.793Z,47.30
2018-10-19T18:45:00.724Z,42.07
2018-10-19T18:47:28.629Z,41.43
2018-10-19T18:49:56.546Z,46.20
2018-10-19T18:52:24.735Z,39.07
2018-10-19T18:54:52.549Z,43.60
2018-10-19T18:57:20.553Z,46.50
2018-10-19T18:59:48.574Z,44.37
2018-10-19T19:02:16.500Z,37.73
2018-10-19T19:04:44.411Z,43.63
2018-10-19T19:07:12.617Z,54.07
2018-10-19T19:09:43.854Z,45.07
2018-10-19T19:12:11.580Z,51.00
2018-10-19T19:14:39.611Z,47.20
2018-10-19T19:17:07.421Z,50.03
2018-10-19T19:19:35.402Z,48.30
2018-10-19T19:22:03.313Z,46.17
2018-10-19T19:24:37.364Z,45.80
2018-10-19T19:27:05.587Z,43.37
2018-10-19T19:29:33.397Z,38.27
2018-10-19T19:32:01.357Z,47.13
2018-10-19T19:34:31.211Z,41.00
2018-10-19T19:36:59.200Z,41.30
2018-10-19T19:39:27.084Z,39.43
2018-10-19T19:42:00.647Z,48.33
2018-10-19T19:44:28.396Z,44.30
2018-10-19T19:46:56.161Z,45.37
2018-10-19T19:49:29.812Z,48.95
2018-10-19T19:51:57.904Z,54.53
2018-10-19T19:54:25.798Z,49.17
2018-10-19T19:56:53.593Z,58.30
2018-10-19T19:59:21.286Z,37.50
2018-10-19T20:01:49.223Z,51.37
2018-10-19T20:04:17.045Z,44.00
2018-10-19T20:06:44.805Z,42.30
2018-10-19T20:09:13.278Z,44.53
2018-10-19T20:11:41.052Z,45.40
2018-10-19T20:14:09.282Z,46.70
2018-10-19T20:16:37.544Z,45.23
2018-10-19T20:19:05.683Z,52.40
2018-10-19T20:21:33.468Z,48.70
2018-10-19T20:24:01.347Z,41.83
2018-10-19T20:26:29.028Z,43.77
2018-10-19T20:28:56.906Z,57.48
2018-10-19T20:31:24.577Z,51.33
2018-10-19T20:33:52.385Z,49.13
2018-10-19T20:36:20.241Z,61.00
2018-10-19T20:38:48.146Z,54.30
2018-10-19T20:41:15.933Z,48.77
2018-10-19T20:43:43.975Z,41.57
2018-10-19T20:46:11.834Z,49.27
2018-10-19T20:48:39.557Z,49.58
2018-10-19T20:51:07.432Z,39.13
2018-10-19T20:53:35.258Z,40.13
2018-10-19T20:56:06.982Z,42.07
2018-10-19T20:58:34.796Z,48.47
2018-10-19T21:01:02.561Z,42.53
2018-10-19T21:03:30.379Z,38.20
2018-10-19T21:05:58.121Z,40.38
2018-10-19T21:08:25.951Z,45.98
2018-10-19T21:10:53.624Z,46.40
2018-10-19T21:13:21.597Z,40.33
2018-10-19T21:15:49.413Z,54.00
2018-10-19T21:18:17.286Z,45.33
2018-10-19T21:20:45.066Z,46.93
2018-10-19T21:23:12.982Z,40.30
2018-10-19T21:25:40.693Z,50.50
2018-10-19T21:28:10.584Z,47.30
2018-10-19T21:30:38.421Z,45.70
2018-10-19T21:33:06.243Z,43.17
2018-10-19T21:35:33.987Z,45.00
2018-10-19T21:38:02.690Z,44.30
2018-10-19T21:40:30.354Z,38.40
2018-10-19T21:42:58.026Z,49.07
2018-10-19T21:45:25.705Z,45.28
2018-10-19T21:47:53.509Z,42.23
2018-10-19T21:50:21.950Z,49.77
2018-10-19T21:52:51.120Z,38.63
2018-10-19T21:55:18.868Z,37.07
2018-10-19T21:57:46.528Z,44.70
2018-10-19T22:00:14.393Z,45.35
2018-10-19T22:02:42.122Z,47.30
2018-10-19T22:05:10.000Z,46.68
2018-10-19T22:07:38.221Z,40.85
2018-10-19T22:10:06.195Z,37.38
2018-10-19T22:12:34.210Z,45.13
2018-10-19T22:15:02.034Z,42.97
2018-10-19T22:17:29.884Z,49.77
2018-10-19T22:19:57.661Z,51.67
2018-10-19T22:22:25.466Z,52.73
2018-10-19T22:24:53.402Z,47.78
2018-10-19T22:27:21.107Z,46.53
2018-10-19T22:29:48.868Z,55.55
2018-10-19T22:32:16.563Z,47.03
2018-10-19T22:34:44.501Z,43.07
2018-10-19T22:37:12.243Z,46.93
2018-10-19T22:39:40.848Z,65.07
2018-10-19T22:42:08.590Z,50.87
2018-10-19T22:44:36.447Z,47.13
2018-10-19T22:47:04.382Z,57.27
2018-10-19T22:49:32.044Z,61.37
2018-10-19T22:51:59.711Z,49.48
2018-10-19T22:54:27.547Z,54.20
2018-10-19T22:56:55.292Z,53.43
2018-10-19T22:59:23.003Z,63.50
2018-10-19T23:01:50.907Z,58.90
2018-10-19T23:04:18.735Z,61.00
2018-10-19T23:06:46.755Z,57.53
2018-10-19T23:09:14.790Z,58.27
2018-10-19T23:11:42.575Z,56.00
2018-10-19T23:14:10.438Z,57.93
2018-10-19T23:16:38.535Z,57.57
2018-10-19T23:19:06.719Z,57.03
2018-10-19T23:21:34.583Z,58.23
2018-10-19T23:24:02.601Z,57.30
2018-10-19T23:26:30.284Z,58.47
2018-10-19T23:28:58.126Z,54.98
2018-10-19T23:31:25.962Z,68.75
2018-10-19T23:33:53.632Z,61.10
2018-10-19T23:36:22.098Z,57.67
2018-10-19T23:38:49.787Z,52.60
2018-10-19T23:41:17.474Z,57.50
2018-10-19T23:43:45.880Z,62.23
2018-10-19T23:46:13.764Z,67.10
2018-10-19T23:48:41.419Z,61.10
2018-10-19T23:51:09.142Z,61.40
2018-10-19T23:53:37.044Z,57.83
2018-10-19T23:56:04.948Z,45.95
2018-10-19T23:58:32.718Z,59.80
